Time;durP1;ratioP1;P1;durP2;ratioP2;P2;SDS_P1;SDS_P2;PMS_P1;PMS_P2;Temp;Humidity;BMP_temperature;BMP_pressure;BME280_temperature;BME280_humidity;BME280_pressure;Samples;Min_cycle;Max_cycle;Signal;HPM_P1;HPM_P2
2022/04/26 03:36:11;;;;;;;30.88;16.05;;;;;;;3.27;100.00;98366.16;4220565;27;20049;-72
2022/04/26 03:38:12;;;;;;;32.47;16.20;;;;;;;3.26;100.00;98359.06;4220704;28;20036;-71
2022/04/26 03:40:12;;;;;;;36.10;17.23;;;;;;;3.29;100.00;98352.13;4221142;28;20104;-71
2022/04/26 03:42:13;;;;;;;32.67;17.25;;;;;;;3.29;100.00;98355.66;4221529;27;20027;-71
2022/04/26 03:44:13;;;;;;;26.90;15.55;;;;;;;3.32;100.00;98359.69;4221514;28;20039;-71
2022/04/26 03:46:13;;;;;;;27.63;15.25;;;;;;;3.32;100.00;98365.97;4220781;27;20372;-71
2022/04/26 03:48:13;;;;;;;31.10;15.18;;;;;;;3.34;100.00;98362.88;4220803;27;20110;-71
2022/04/26 03:50:14;;;;;;;29.92;14.85;;;;;;;3.36;100.00;98366.09;4221672;28;20128;-71
2022/04/26 03:52:14;;;;;;;30.35;16.38;;;;;;;3.37;100.00;98364.94;4221122;27;20119;-71
2022/04/26 03:54:14;;;;;;;35.03;16.75;;;;;;;3.37;100.00;98367.69;4221206;28;20070;-71
2022/04/26 03:56:15;;;;;;;31.58;16.67;;;;;;;3.41;100.00;98371.38;4220599;28;20398;-71
2022/04/26 03:58:15;;;;;;;31.20;15.82;;;;;;;3.40;100.00;98367.03;4220944;28;20027;-71
2022/04/26 04:00:15;;;;;;;34.95;17.83;;;;;;;3.44;100.00;98367.16;4220709;27;20096;-71
2022/04/26 04:02:16;;;;;;;36.78;17.83;;;;;;;3.48;100.00;98370.84;4220766;28;20054;-71
2022/04/26 04:04:16;;;;;;;34.65;17.60;;;;;;;3.49;100.00;98373.22;4227534;27;20122;-71
2022/04/26 04:06:16;;;;;;;28.58;15.18;;;;;;;3.53;100.00;98370.63;4233378;27;20201;-71
2022/04/26 04:08:17;;;;;;;32.50;17.05;;;;;;;3.57;100.00;98369.63;4220285;28;20026;-71
2022/04/26 04:10:17;;;;;;;29.95;15.63;;;;;;;3.61;100.00;98367.00;4229992;27;20514;-71
2022/04/26 04:12:18;;;;;;;31.75;16.67;;;;;;;3.66;100.00;98369.56;4220922;28;20502;-71
2022/04/26 04:14:18;;;;;;;31.45;15.63;;;;;;;3.68;100.00;98367.28;4220951;27;20066;-71
2022/04/26 04:16:18;;;;;;;34.38;17.10;;;;;;;3.66;100.00;98364.88;4226283;27;20752;-71
2022/04/26 04:20:37;;;;;;;31.48;17.30;;;;;;;3.69;100.00;98366.13;4219911;27;20050;-71
2022/04/26 04:22:38;;;;;;;34.58;17.30;;;;;;;3.70;100.00;98370.47;4220780;28;20036;-71
2022/04/26 04:24:38;;;;;;;30.17;15.52;;;;;;;3.74;100.00;98368.69;4220696;28;20071;-71
2022/04/26 04:26:39;;;;;;;29.00;15.23;;;;;;;3.76;100.00;98369.13;4227238;27;20047;-71
2022/04/26 04:28:39;;;;;;;28.65;15.07;;;;;;;3.78;100.00;98371.53;4220926;28;20374;-71
2022/04/26 04:30:39;;;;;;;34.63;16.60;;;;;;;3.78;100.00;98374.25;4220537;28;20035;-71
2022/04/26 04:32:40;;;;;;;30.50;16.55;;;;;;;3.80;100.00;98367.31;4219312;28;20047;-71
2022/04/26 04:34:40;;;;;;;30.13;15.35;;;;;;;3.84;100.00;98378.41;4220406;28;20052;-71
2022/04/26 04:36:40;;;;;;;33.95;16.00;;;;;;;3.82;100.00;98370.53;4219894;28;20299;-71
2022/04/26 04:38:41;;;;;;;29.90;14.50;;;;;;;3.88;100.00;98377.38;4220307;28;20128;-71
2022/04/26 04:40:42;;;;;;;35.20;16.23;;;;;;;3.89;100.00;98367.25;4220053;28;20474;-71
2022/04/26 04:42:44;;;;;;;31.63;16.95;;;;;;;3.92;100.00;98369.31;4219944;27;20094;-71
2022/04/26 04:44:45;;;;;;;27.27;14.48;;;;;;;3.90;100.00;98366.91;4220128;28;20058;-71
2022/04/26 04:46:45;;;;;;;31.10;16.55;;;;;;;3.94;100.00;98367.84;4219600;28;20047;-71
2022/04/26 04:48:46;;;;;;;27.90;14.93;;;;;;;3.95;100.00;98369.44;4219180;28;20463;-71
2022/04/26 04:50:46;;;;;;;31.17;15.90;;;;;;;3.95;100.00;98374.91;4220693;27;20044;-71
2022/04/26 04:52:47;;;;;;;31.92;15.43;;;;;;;4.00;100.00;98381.31;4219655;28;20240;-71
2022/04/26 04:54:48;;;;;;;32.70;15.80;;;;;;;4.02;100.00;98382.56;4163282;27;20031;-71
2022/04/26 04:56:48;;;;;;;32.97;17.27;;;;;;;4.06;100.00;98379.97;4221528;27;20142;-71
2022/04/26 04:58:48;;;;;;;33.83;16.98;;;;;;;4.07;100.00;98381.56;4219608;28;20035;-71
2022/04/26 05:00:49;;;;;;;36.90;17.67;;;;;;;4.16;100.00;98383.09;4226985;27;20125;-71
2022/04/26 05:02:49;;;;;;;35.83;16.90;;;;;;;4.21;100.00;98390.28;4220404;28;20330;-71
2022/04/26 05:04:50;;;;;;;33.15;16.35;;;;;;;4.23;100.00;98380.59;4220030;28;20585;-71
2022/04/26 05:06:50;;;;;;;33.13;17.35;;;;;;;4.27;100.00;98379.91;4219417;28;20043;-71
2022/04/26 05:08:50;;;;;;;36.78;19.38;;;;;;;4.32;100.00;98387.91;4220097;28;20122;-71
2022/04/26 05:10:51;;;;;;;32.58;17.58;;;;;;;4.35;100.00;98388.03;4222054;27;20063;-71
2022/04/26 05:12:51;;;;;;;36.60;18.67;;;;;;;4.40;100.00;98390.56;4222410;27;20526;-71
2022/04/26 05:14:51;;;;;;;31.60;16.85;;;;;;;4.47;100.00;98404.50;4227025;27;20424;-71
2022/04/26 05:16:52;;;;;;;34.50;17.88;;;;;;;4.50;100.00;98403.81;4223527;27;20035;-71
2022/04/26 05:18:52;;;;;;;34.75;18.23;;;;;;;4.52;100.00;98403.47;4222549;27;20039;-71
2022/04/26 05:20:52;;;;;;;34.92;17.27;;;;;;;4.56;100.00;98398.94;4220265;28;20551;-71
2022/04/26 05:25:11;;;;;;;33.85;17.58;;;;;;;4.70;100.00;98417.78;4220670;28;20055;-71
2022/04/26 05:27:11;;;;;;;34.88;16.85;;;;;;;4.74;100.00;98415.97;4221981;27;20052;-71
2022/04/26 05:29:12;;;;;;;33.58;16.63;;;;;;;4.77;100.00;98416.06;4220646;27;20390;-71
2022/04/26 05:31:12;;;;;;;33.72;16.33;;;;;;;4.83;100.00;98418.59;4227218;27;20417;-71
2022/04/26 05:33:13;;;;;;;36.97;17.20;;;;;;;4.87;100.00;98406.59;4223592;27;20035;-71
2022/04/26 05:35:13;;;;;;;33.65;17.50;;;;;;;5.01;100.00;98414.50;4219903;27;20096;-71
2022/04/26 05:37:14;;;;;;;31.23;16.95;;;;;;;5.12;100.00;98418.34;4218201;28;20067;-71
2022/04/26 05:39:14;;;;;;;34.92;16.92;;;;;;;5.21;100.00;98415.50;4218367;28;20345;-71
2022/04/26 05:41:14;;;;;;;31.00;16.52;;;;;;;5.34;100.00;98406.13;4218023;28;20043;-71
2022/04/26 05:43:15;;;;;;;36.38;16.95;;;;;;;5.45;100.00;98411.94;4218519;28;20905;-71
2022/04/26 05:45:15;;;;;;;36.20;17.65;;;;;;;5.52;100.00;98403.91;4216862;28;20059;-71
2022/04/26 05:47:16;;;;;;;34.28;17.45;;;;;;;5.62;100.00;98414.41;4224583;27;20043;-71
2022/04/26 05:49:16;;;;;;;35.30;18.20;;;;;;;5.72;100.00;98411.19;4220002;28;20101;-71
2022/04/26 05:51:16;;;;;;;33.13;17.77;;;;;;;5.82;100.00;98402.47;4223775;27;20039;-71
2022/04/26 05:53:16;;;;;;;38.38;19.38;;;;;;;5.85;100.00;98400.97;4222417;27;20444;-71
2022/04/26 05:55:17;;;;;;;38.17;19.42;;;;;;;5.94;100.00;98404.41;4221918;28;20130;-71
2022/04/26 05:57:18;;;;;;;35.85;18.27;;;;;;;6.01;100.00;98407.34;4221541;28;20048;-71
2022/04/26 05:59:18;;;;;;;32.58;17.65;;;;;;;6.10;100.00;98420.94;4223374;28;20035;-71
2022/04/26 06:01:19;;;;;;;35.22;17.25;;;;;;;6.17;100.00;98407.41;4221650;28;20130;-71
2022/04/26 06:03:19;;;;;;;36.05;17.30;;;;;;;6.21;96.25;98411.06;4223210;28;20341;-71
2022/04/26 06:05:20;;;;;;;29.05;16.40;;;;;;;6.29;99.39;98406.53;4223181;28;20044;-71
2022/04/26 06:07:21;;;;;;;31.27;16.27;;;;;;;6.32;100.00;98400.34;4222190;27;20036;-71
2022/04/26 06:09:21;;;;;;;38.08;19.05;;;;;;;6.39;100.00;98403.28;4223093;28;20044;-71
2022/04/26 06:11:21;;;;;;;37.60;18.67;;;;;;;6.41;100.00;98404.53;4226819;27;20520;-71
2022/04/26 06:13:22;;;;;;;28.88;16.48;;;;;;;6.42;95.79;98400.63;4222905;28;20043;-71
2022/04/26 06:15:22;;;;;;;31.55;16.55;;;;;;;6.48;95.71;98399.22;4224059;27;20070;-71
2022/04/26 06:17:23;;;;;;;34.20;18.45;;;;;;;6.58;99.39;98397.09;4222081;27;20036;-71
2022/04/26 06:19:23;;;;;;;32.83;17.63;;;;;;;6.60;100.00;98392.84;4225444;27;20044;-71
2022/04/26 06:21:24;;;;;;;29.70;16.17;;;;;;;6.66;96.78;98391.44;4222417;28;20143;-71
2022/04/26 06:23:24;;;;;;;31.75;18.42;;;;;;;6.74;98.90;98387.69;4223009;28;20036;-71
2022/04/26 06:25:24;;;;;;;34.55;17.83;;;;;;;6.79;99.47;98389.41;4221438;27;20071;-71
2022/04/26 06:27:24;;;;;;;34.20;19.52;;;;;;;6.90;100.00;98397.91;4222114;27;20391;-71
2022/04/26 06:29:25;;;;;;;31.20;17.60;;;;;;;7.00;99.65;98395.41;4222675;28;20075;-71
2022/04/26 06:31:25;;;;;;;29.92;16.58;;;;;;;7.11;96.42;98392.91;4222485;27;20047;-71
2022/04/26 06:33:26;;;;;;;28.48;16.50;;;;;;;7.24;96.47;98397.16;4228311;27;20043;-71
2022/04/26 06:35:26;;;;;;;33.50;17.92;;;;;;;7.26;95.87;98383.81;4222926;27;20510;-71
2022/04/26 06:37:27;;;;;;;33.13;18.60;;;;;;;7.38;97.34;98391.19;4221414;27;20039;-71
2022/04/26 06:39:28;;;;;;;36.33;18.08;;;;;;;7.46;96.74;98386.63;4222563;28;20043;-71
2022/04/26 06:41:28;;;;;;;35.33;18.60;;;;;;;7.53;97.64;98386.78;4222090;27;20471;-71
2022/04/26 06:43:32;;;;;;;32.35;17.33;;;;;;;7.63;97.88;98390.94;4222386;28;20043;-71
2022/04/26 06:45:33;;;;;;;29.95;17.27;;;;;;;7.74;94.55;98395.50;4226213;28;20487;-71
2022/04/26 06:47:33;;;;;;;31.00;17.90;;;;;;;7.84;95.36;98392.16;4219632;28;20050;-71
2022/04/26 06:49:34;;;;;;;34.58;18.85;;;;;;;7.89;93.27;98378.13;4221135;28;20395;-71
2022/04/26 06:51:38;;;;;;;32.80;17.45;;;;;;;7.97;93.53;98387.34;4227131;28;20035;-71
2022/04/26 06:53:38;;;;;;;30.90;18.05;;;;;;;7.99;93.97;98390.50;4226617;27;20039;-71
2022/04/26 06:55:39;;;;;;;27.38;16.42;;;;;;;7.97;91.86;98381.81;4220887;28;20066;-71
2022/04/26 06:57:40;;;;;;;30.38;17.35;;;;;;;7.99;92.40;98386.97;4223892;28;20051;-71
2022/04/26 06:59:40;;;;;;;31.15;16.58;;;;;;;8.01;91.35;98384.63;4220029;28;20046;-71
2022/04/26 07:01:41;;;;;;;28.73;16.70;;;;;;;8.06;92.42;98387.09;4221054;28;20541;-71
2022/04/26 07:03:41;;;;;;;29.58;16.33;;;;;;;8.01;90.01;98377.16;4223861;28;20040;-71
2022/04/26 07:05:42;;;;;;;27.05;14.98;;;;;;;8.18;90.12;98386.94;4221256;28;20075;-71
2022/04/26 07:07:42;;;;;;;31.17;18.23;;;;;;;8.31;91.77;98393.09;4220223;28;20047;-71
2022/04/26 07:09:42;;;;;;;29.73;16.45;;;;;;;8.47;92.54;98396.59;4222486;28;20051;-71
2022/04/26 07:11:43;;;;;;;29.13;16.25;;;;;;;8.55;89.27;98390.03;4222307;28;20043;-71
2022/04/26 07:13:43;;;;;;;24.85;16.10;;;;;;;8.62;87.90;98394.91;4220534;28;20040;-71
2022/04/26 07:15:44;;;;;;;26.85;16.92;;;;;;;8.73;89.68;98387.59;4220949;28;20383;-71
2022/04/26 07:17:44;;;;;;;28.77;17.88;;;;;;;8.80;90.36;98386.94;4220142;28;20047;-71
2022/04/26 07:19:44;;;;;;;28.85;16.60;;;;;;;8.82;89.88;98388.13;4220508;28;20032;-71
2022/04/26 07:21:46;;;;;;;26.73;15.93;;;;;;;8.81;88.92;98394.03;4222363;27;20668;-71
2022/04/26 07:23:47;;;;;;;31.00;18.23;;;;;;;8.86;89.05;98388.22;4220187;28;20039;-71
2022/04/26 07:25:47;;;;;;;27.55;17.42;;;;;;;8.90;89.78;98389.06;4221279;28;20468;-71
2022/04/26 07:27:47;;;;;;;25.88;16.23;;;;;;;8.93;90.88;98391.88;4219770;28;20138;-71
2022/04/26 07:29:49;;;;;;;27.30;15.98;;;;;;;8.98;90.08;98397.09;4227387;28;20042;-71
2022/04/26 07:31:49;;;;;;;26.20;16.70;;;;;;;9.10;91.18;98396.09;4220916;28;20604;-71
2022/04/26 07:36:09;;;;;;;26.65;15.73;;;;;;;9.20;88.25;98403.75;4226490;27;20042;-72
2022/04/26 07:38:10;;;;;;;26.53;15.33;;;;;;;9.26;87.00;98399.50;4219150;28;20355;-71
2022/04/26 07:40:11;;;;;;;27.77;14.95;;;;;;;9.25;85.77;98395.13;4226118;27;20024;-71
2022/04/26 07:42:11;;;;;;;25.08;14.30;;;;;;;9.27;87.49;98408.59;4220577;28;20104;-71
2022/04/26 07:44:12;;;;;;;20.05;13.30;;;;;;;9.24;83.98;98407.34;4211075;28;248961;-71
2022/04/26 07:46:15;;;;;;;22.15;14.40;;;;;;;9.23;85.04;98416.81;4220475;28;20024;-71
2022/04/26 07:48:16;;;;;;;23.48;15.02;;;;;;;9.24;86.91;98409.31;4220534;27;20147;-71
2022/04/26 07:50:18;;;;;;;24.53;14.87;;;;;;;9.24;88.68;98417.59;4221340;28;20460;-71
2022/04/26 07:52:19;;;;;;;25.45;14.98;;;;;;;9.22;86.42;98411.66;4221375;28;20023;-71
2022/04/26 07:54:20;;;;;;;24.90;15.52;;;;;;;9.30;88.72;98418.88;4220660;28;20471;-71
2022/04/26 07:56:20;;;;;;;26.02;15.98;;;;;;;9.30;87.77;98410.59;4220828;28;20052;-71
2022/04/26 07:58:21;;;;;;;23.42;14.27;;;;;;;9.26;85.56;98412.50;4220339;27;20047;-71
2022/04/26 08:00:21;;;;;;;24.25;14.63;;;;;;;9.26;84.78;98420.78;4221569;28;20107;-71
2022/04/26 08:02:22;;;;;;;22.95;14.00;;;;;;;9.22;86.86;98415.22;4227973;27;20031;-71
2022/04/26 08:04:22;;;;;;;29.85;16.45;;;;;;;9.28;89.37;98432.28;4221153;28;20039;-71
2022/04/26 08:06:23;;;;;;;24.88;15.25;;;;;;;9.28;88.41;98435.81;4222289;27;20501;-71
2022/04/26 08:08:23;;;;;;;22.92;15.05;;;;;;;9.29;86.66;98431.09;4221681;27;20038;-71
2022/04/26 08:10:24;;;;;;;21.92;13.77;;;;;;;9.31;84.96;98425.19;4227872;27;20413;-71
2022/04/26 08:12:25;;;;;;;25.85;15.38;;;;;;;9.29;87.29;98429.13;4221282;27;20055;-71
2022/04/26 08:14:25;;;;;;;26.13;15.57;;;;;;;9.32;88.09;98435.06;4222706;27;20048;-71
2022/04/26 08:16:26;;;;;;;26.83;15.10;;;;;;;9.36;87.44;98433.19;4220108;28;20362;-71
2022/04/26 08:18:26;;;;;;;21.90;14.68;;;;;;;9.43;88.03;98445.13;4225476;27;20050;-71
2022/04/26 08:20:26;;;;;;;25.60;15.25;;;;;;;9.45;87.27;98442.00;4228597;27;20074;-71
2022/04/26 08:22:27;;;;;;;25.10;14.85;;;;;;;9.47;87.89;98443.22;4220638;27;20043;-71
2022/04/26 08:29:05;;;;;;;30.10;17.02;;;;;;;9.39;87.13;98457.28;4220613;27;20320;-71
2022/04/26 08:31:05;;;;;;;28.48;16.20;;;;;;;9.35;88.07;98450.88;4220340;28;20035;-71
2022/04/26 08:33:06;;;;;;;28.55;16.60;;;;;;;9.24;87.67;98459.81;4220581;28;20816;-71
2022/04/26 08:35:07;;;;;;;30.08;17.52;;;;;;;9.21;87.39;98460.56;4220591;28;20043;-71
2022/04/26 08:37:11;;;;;;;28.17;16.88;;;;;;;9.19;88.20;98464.84;4219792;27;20123;-71
2022/04/26 08:39:11;;;;;;;31.27;18.55;;;;;;;9.18;90.04;98457.72;4220187;28;20479;-71
2022/04/26 08:41:12;;;;;;;29.90;17.52;;;;;;;9.18;89.96;98468.75;4226427;27;20057;-71
2022/04/26 08:43:13;;;;;;;32.35;18.50;;;;;;;9.19;90.00;98468.41;4226739;27;20525;-71
2022/04/26 08:45:21;;;;;;;30.13;17.33;;;;;;;9.18;89.01;98466.78;4220362;27;20101;-71
2022/04/26 08:52:02;;;;;;;30.27;18.88;;;;;;;9.21;88.63;98474.34;4220303;28;20054;-71
2022/04/26 08:54:03;;;;;;;36.08;20.42;;;;;;;9.17;89.34;98470.72;4219107;28;20398;-72
2022/04/26 08:56:06;;;;;;;31.30;19.80;;;;;;;9.22;90.57;98466.88;4220375;28;20024;-71
2022/04/26 08:58:08;;;;;;;33.60;19.50;;;;;;;9.24;90.51;98475.56;4223851;27;20127;-71
2022/04/26 09:00:13;;;;;;;32.97;18.58;;;;;;;9.27;91.35;98472.09;4223787;27;20032;-71
2022/04/26 09:02:21;;;;;;;32.97;19.67;;;;;;;9.32;92.41;98465.44;4219571;27;20039;-71
2022/04/26 09:04:22;;;;;;;32.45;19.63;;;;;;;9.34;92.60;98463.91;4220082;28;20030;-71
2022/04/26 09:06:40;;;;;;;35.83;19.48;;;;;;;9.39;91.68;98480.16;4219928;28;20114;-71
2022/04/26 09:08:42;;;;;;;34.42;18.85;;;;;;;9.42;90.90;98475.84;4220226;27;20463;-72
2022/04/26 09:10:46;;;;;;;32.17;18.58;;;;;;;9.45;89.97;98473.16;4224035;27;20047;-71
2022/04/26 09:13:10;;;;;;;29.73;18.10;;;;;;;9.45;88.19;98473.16;4220060;28;20523;-71
2022/04/26 09:15:16;;;;;;;26.67;17.05;;;;;;;9.54;86.75;98475.66;4225443;27;20123;-71
2022/04/26 09:17:16;;;;;;;23.48;14.95;;;;;;;9.61;85.58;98472.22;4220224;27;20061;-71
2022/04/26 09:19:17;;;;;;;23.30;14.75;;;;;;;9.74;86.32;98476.34;4220181;28;20126;-71
2022/04/26 09:21:17;;;;;;;23.83;13.40;;;;;;;9.82;85.63;98472.53;4218861;28;20040;-71
2022/04/26 09:23:29;;;;;;;20.38;13.40;;;;;;;9.95;83.83;98475.88;4220080;28;20051;-71
2022/04/26 09:25:29;;;;;;;22.92;13.68;;;;;;;10.04;82.87;98482.72;4219560;27;20486;-71
2022/04/26 09:27:34;;;;;;;18.27;12.30;;;;;;;10.11;81.85;98473.72;4219344;28;20032;-71
2022/04/26 09:29:46;;;;;;;21.50;12.88;;;;;;;10.17;81.50;98476.94;4219715;27;20047;-71
2022/04/26 09:31:59;;;;;;;19.48;13.07;;;;;;;10.23;82.06;98483.78;4222813;27;20130;-71
2022/04/26 09:34:06;;;;;;;20.67;13.07;;;;;;;10.28;82.16;98481.47;4220142;28;20063;-71
2022/04/26 09:36:10;;;;;;;17.13;12.30;;;;;;;10.30;79.77;98484.66;4218968;28;20122;-72
2022/04/26 09:38:12;;;;;;;14.55;10.45;;;;;;;10.36;80.56;98485.13;4218865;28;20044;-72
2022/04/26 09:40:12;;;;;;;15.32;10.40;;;;;;;10.38;80.51;98480.00;4219463;28;20081;-72
2022/04/26 09:42:13;;;;;;;17.85;10.93;;;;;;;10.41;79.34;98482.00;4225228;27;20413;-72
2022/04/26 09:44:13;;;;;;;17.40;10.10;;;;;;;10.44;79.45;98483.25;4219959;28;20050;-72
2022/04/26 09:46:13;;;;;;;14.38;9.65;;;;;;;10.43;78.21;98481.66;4219760;28;20463;-72
2022/04/26 09:48:24;;;;;;;14.60;9.55;;;;;;;10.35;76.22;98486.31;4218723;28;20473;-71
2022/04/26 09:50:26;;;;;;;16.05;10.55;;;;;;;10.33;76.14;98481.13;4219264;28;20533;-71
2022/04/26 09:52:26;;;;;;;14.23;9.45;;;;;;;10.32;74.32;98484.28;4219393;28;20035;-71
2022/04/26 09:54:27;;;;;;;14.35;8.18;;;;;;;10.31;74.72;98488.22;4223605;28;20044;-72
2022/04/26 09:56:30;;;;;;;16.33;9.23;;;;;;;10.30;74.68;98486.63;4219139;28;20047;-71
2022/04/26 09:58:31;;;;;;;14.15;9.25;;;;;;;10.30;75.38;98487.44;4219005;27;20475;-71
2022/04/26 10:00:32;;;;;;;17.90;9.93;;;;;;;10.30;75.23;98486.63;4219210;28;20046;-71
2022/04/26 10:02:36;;;;;;;14.27;9.30;;;;;;;10.32;75.79;98495.34;4226233;28;20040;-71
2022/04/26 10:04:44;;;;;;;11.48;7.68;;;;;;;10.31;75.30;98493.75;4226005;27;20065;-71
2022/04/26 10:06:47;;;;;;;12.73;8.38;;;;;;;10.28;74.12;98492.53;4219269;28;20044;-71
2022/04/26 10:08:48;;;;;;;12.73;8.90;;;;;;;10.31;75.26;98496.50;4218839;28;20511;-71
2022/04/26 10:10:48;;;;;;;12.05;7.93;;;;;;;10.32;73.78;98500.88;4222911;28;20040;-72
2022/04/26 10:13:31;;;;;;;12.73;8.38;;;;;;;10.33;73.94;98494.16;4219742;28;20069;-71
2022/04/26 10:15:10;;;;;;;11.23;7.13;;;;;;;10.38;74.95;98496.59;4219086;28;20050;-71
2022/04/26 10:17:13;;;;;;;10.85;7.40;;;;;;;10.39;73.57;98499.00;4220796;28;20254;-72
2022/04/26 10:19:13;;;;;;;12.10;7.32;;;;;;;10.46;72.59;98491.97;4219762;28;20055;-72
2022/04/26 10:21:22;;;;;;;12.57;8.02;;;;;;;10.47;72.48;98494.34;4225463;27;20036;-71
2022/04/26 10:23:23;;;;;;;9.88;7.68;;;;;;;10.54;72.08;98494.44;4226748;28;20078;-71
2022/04/26 10:25:25;;;;;;;14.35;7.90;;;;;;;10.63;73.62;98494.94;4231098;27;20426;-71
2022/04/26 10:27:25;;;;;;;12.05;8.10;;;;;;;10.77;73.94;98502.59;4218555;28;20047;-71
2022/04/26 10:29:26;;;;;;;11.57;7.38;;;;;;;10.92;72.65;98493.28;4219269;28;20139;-71
2022/04/26 10:31:38;;;;;;;10.77;8.10;;;;;;;11.11;70.78;98495.03;4220362;28;20068;-71
2022/04/26 10:33:40;;;;;;;11.15;7.38;;;;;;;11.29;70.94;98491.63;4224412;27;20039;-71
2022/04/26 10:35:40;;;;;;;11.35;7.18;;;;;;;11.37;69.94;98490.53;4219152;28;20566;-71
2022/04/26 10:37:41;;;;;;;10.90;7.70;;;;;;;11.46;67.73;98489.00;4218202;28;20042;-71
2022/04/26 10:39:45;;;;;;;13.48;7.80;;;;;;;11.59;66.65;98488.72;4222635;27;20054;-71
2022/04/26 10:41:46;;;;;;;11.55;7.90;;;;;;;11.55;64.68;98491.47;4222786;27;20043;-72
2022/04/26 10:44:18;;;;;;;12.10;7.38;;;;;;;11.59;67.25;98494.28;4222370;27;20043;-71
2022/04/26 10:46:20;;;;;;;12.77;7.80;;;;;;;11.56;65.18;98487.50;4221788;28;20056;-71
2022/04/26 10:48:24;;;;;;;12.80;8.75;;;;;;;11.56;67.27;98497.78;4221803;28;20442;-71
2022/04/26 10:50:32;;;;;;;15.93;9.68;;;;;;;11.47;69.23;98498.13;4222165;27;20059;-71
2022/04/26 10:52:37;;;;;;;16.70;10.35;;;;;;;11.42;69.60;98490.97;4222204;28;20031;-71
2022/04/26 10:54:55;;;;;;;17.25;11.43;;;;;;;11.44;70.67;98505.22;4222119;27;20290;-71
2022/04/26 10:56:56;;;;;;;17.00;10.80;;;;;;;11.43;69.88;98495.34;4224882;27;20050;-71
2022/04/26 10:58:56;;;;;;;14.57;10.60;;;;;;;11.32;67.94;98499.97;4230569;27;20126;-71
2022/04/26 11:00:56;;;;;;;16.70;10.73;;;;;;;11.27;69.59;98499.53;4229243;27;20129;-71
2022/04/26 11:03:02;;;;;;;21.70;11.18;;;;;;;11.27;69.65;98489.25;4225128;27;20043;-72
2022/04/26 11:05:11;;;;;;;18.52;12.50;;;;;;;11.18;70.45;98503.44;4228155;27;20110;-71
2022/04/26 11:07:12;;;;;;;17.10;11.63;;;;;;;11.27;70.13;98505.09;4224465;27;20123;-71
2022/04/26 11:09:14;;;;;;;18.52;11.82;;;;;;;11.24;70.54;98499.09;4221975;28;20206;-71
2022/04/26 11:11:14;;;;;;;19.17;11.90;;;;;;;11.29;70.92;98509.06;4222558;27;20040;-71
2022/04/26 11:13:20;;;;;;;17.25;11.85;;;;;;;11.26;69.88;98507.06;4220973;27;20050;-71
2022/04/26 11:15:24;;;;;;;19.38;11.10;;;;;;;11.29;70.52;98509.06;4221766;28;20072;-71
2022/04/26 11:17:25;;;;;;;19.33;12.73;;;;;;;11.32;69.79;98505.50;4227487;27;20229;-71
2022/04/26 11:19:31;;;;;;;19.65;12.57;;;;;;;11.37;71.51;98504.38;4221946;28;20039;-71
2022/04/26 11:21:33;;;;;;;19.85;12.98;;;;;;;11.45;69.79;98506.81;4221741;28;20052;-71
2022/04/26 11:28:32;;;;;;;20.92;13.18;;;;;;;11.45;69.97;98504.06;4202098;27;20532;-72
2022/04/26 11:30:40;;;;;;;22.08;14.38;;;;;;;11.37;70.44;98509.91;4229535;27;20126;-71
2022/04/26 11:32:44;;;;;;;22.13;13.35;;;;;;;11.28;71.45;98510.22;4221388;28;20039;-71
2022/04/26 11:34:46;;;;;;;24.23;14.95;;;;;;;11.19;72.06;98510.56;4226277;27;20166;-71
2022/04/26 11:36:47;;;;;;;21.52;14.45;;;;;;;11.10;72.69;98515.59;4223111;27;20843;-71
2022/04/26 11:38:56;;;;;;;23.42;14.75;;;;;;;11.06;72.65;98508.44;4221742;28;20055;-71
2022/04/26 11:41:01;;;;;;;20.15;14.25;;;;;;;10.96;72.82;98510.72;4221309;27;20445;-71
2022/04/26 11:43:11;;;;;;;23.02;15.98;;;;;;;10.83;73.14;98516.88;4225862;27;20046;-71
2022/04/26 11:45:11;;;;;;;25.77;14.68;;;;;;;10.79;74.24;98514.09;4224890;27;20032;-71
2022/04/26 11:47:13;;;;;;;22.33;15.10;;;;;;;10.75;76.71;98504.94;4220367;28;20101;-71
2022/04/26 11:49:13;;;;;;;26.13;15.45;;;;;;;10.76;77.21;98508.50;4220829;28;20044;-71
2022/04/26 11:51:13;;;;;;;23.08;15.30;;;;;;;10.75;78.38;98507.69;4220774;28;20044;-72
2022/04/26 11:53:22;;;;;;;26.17;16.30;;;;;;;10.71;78.54;98514.38;4221401;27;20047;-72
2022/04/26 11:55:27;;;;;;;25.17;16.48;;;;;;;10.73;78.20;98514.81;4221406;28;20323;-72
2022/04/26 11:57:28;;;;;;;28.90;18.33;;;;;;;10.67;78.84;98517.09;4220887;28;20043;-72
2022/04/26 11:59:29;;;;;;;28.15;18.25;;;;;;;10.65;78.78;98514.72;4221387;27;20040;-71
2022/04/26 12:01:30;;;;;;;25.88;16.95;;;;;;;10.68;78.02;98507.66;4220782;28;20391;-71
2022/04/26 12:03:44;;;;;;;24.33;16.20;;;;;;;10.74;75.80;98513.63;4220843;27;20097;-72
2022/04/26 12:05:49;;;;;;;25.02;16.17;;;;;;;10.75;76.22;98517.97;4221220;28;20047;-71
2022/04/26 12:07:51;;;;;;;27.42;16.95;;;;;;;10.75;76.23;98515.22;4221782;27;20075;-72
2022/04/26 12:09:52;;;;;;;28.75;17.58;;;;;;;10.74;76.87;98514.41;4223861;27;20039;-71
2022/04/26 12:12:03;;;;;;;26.00;17.42;;;;;;;10.77;77.36;98521.97;4224073;27;20139;-72
2022/04/26 12:14:07;;;;;;;27.35;16.67;;;;;;;10.79;77.03;98522.38;4220588;28;20122;-72
2022/04/26 12:16:19;;;;;;;29.52;17.92;;;;;;;10.82;78.16;98507.78;4220764;27;20283;-72
2022/04/26 12:18:20;;;;;;;29.85;17.98;;;;;;;10.85;77.66;98507.03;4220405;28;20032;-72
2022/04/26 12:20:20;;;;;;;26.95;17.50;;;;;;;10.84;77.71;98513.75;4220103;27;20371;-72
2022/04/26 12:22:25;;;;;;;31.33;19.08;;;;;;;10.82;78.21;98518.06;4220393;28;20055;-72
2022/04/26 12:24:30;;;;;;;25.00;17.90;;;;;;;10.79;78.00;98516.84;4220773;27;20036;-72
2022/04/26 12:26:31;;;;;;;24.70;15.60;;;;;;;10.75;76.21;98509.69;4224387;27;20039;-72
2022/04/26 12:28:31;;;;;;;26.33;16.08;;;;;;;10.81;75.57;98516.47;4220531;27;20043;-72
2022/04/26 12:30:33;;;;;;;20.17;14.50;;;;;;;10.82;75.46;98515.28;4228927;27;20032;-72
2022/04/26 12:32:40;;;;;;;21.50;15.45;;;;;;;10.87;74.11;98507.47;4220489;28;20059;-72
2022/04/26 12:34:54;;;;;;;21.95;14.88;;;;;;;10.94;75.44;98513.06;4223601;27;20094;-72
2022/04/26 12:37:10;;;;;;;21.38;14.85;;;;;;;11.02;74.21;98508.41;4221758;27;20040;-72
2022/04/26 12:39:10;;;;;;;22.77;14.90;;;;;;;11.12;73.34;98509.69;4220603;28;20054;-72
2022/04/26 12:41:11;;;;;;;21.88;15.32;;;;;;;11.11;73.22;98511.66;4219635;28;20122;-72
2022/04/26 12:43:31;;;;;;;24.45;15.20;;;;;;;11.18;71.93;98505.41;4220421;28;20130;-72
2022/04/26 12:45:31;;;;;;;22.20;14.20;;;;;;;11.24;71.26;98499.09;4220061;27;20047;-72
2022/04/26 12:52:16;;;;;;;19.58;12.93;;;;;;;11.35;71.09;98512.28;4219825;28;20403;-72
2022/04/26 12:54:16;;;;;;;21.05;14.60;;;;;;;11.46;71.19;98504.84;4219587;28;20028;-72
2022/04/26 12:56:18;;;;;;;19.35;14.00;;;;;;;11.48;69.13;98499.72;4220374;27;20528;-72
2022/04/26 12:58:35;;;;;;;20.45;13.82;;;;;;;11.50;68.79;98503.72;4219396;27;20027;-72
2022/04/26 13:00:41;;;;;;;20.40;14.95;;;;;;;11.59;69.75;98502.59;4219985;28;20458;-72
2022/04/26 13:02:41;;;;;;;19.80;14.27;;;;;;;11.69;71.30;98501.88;4219775;28;20085;-72
2022/04/26 13:04:41;;;;;;;19.63;14.15;;;;;;;11.74;69.70;98493.16;4220441;28;20540;-72
2022/04/26 13:06:43;;;;;;;19.10;13.20;;;;;;;11.75;68.69;98480.91;4219193;27;20055;-72
2022/04/26 13:08:46;;;;;;;21.85;14.02;;;;;;;11.77;67.73;98497.97;4220411;28;20443;-72
2022/04/26 13:10:48;;;;;;;21.63;14.98;;;;;;;11.81;66.79;98505.13;4220827;27;20044;-72
2022/04/26 13:12:49;;;;;;;22.80;14.93;;;;;;;11.75;67.17;98497.53;4219853;28;20665;-72
2022/04/26 13:14:49;;;;;;;21.30;14.75;;;;;;;11.79;66.94;98495.59;4219959;28;20266;-72
2022/04/26 13:16:50;;;;;;;20.20;14.27;;;;;;;11.71;66.91;98494.75;4219223;28;20038;-72
2022/04/26 13:18:50;;;;;;;20.33;13.90;;;;;;;11.71;67.23;98496.72;4227039;27;20147;-71
2022/04/26 13:20:52;;;;;;;20.63;13.82;;;;;;;11.78;66.78;98492.03;4220038;27;20059;-72
2022/04/26 13:22:53;;;;;;;21.70;13.45;;;;;;;11.78;67.34;98489.25;4221669;28;20108;-72
2022/04/26 13:24:53;;;;;;;20.70;14.02;;;;;;;11.82;66.96;98498.41;4227654;27;20043;-72
2022/04/26 13:26:53;;;;;;;17.08;12.18;;;;;;;11.82;65.39;98497.63;4219298;27;20043;-72